Impacts TAF Board
For situational awareness. Not to be used for flight planning purposes.
IDs:

KTYR - Tyler/Pounds Fld, TX, US

Issued at 1809 UTC 06 Dec 2019
Updated at 2105 UTC 06 Dec 2019
Potential Impact None Slight Moderate High
Time2053Z 06/22Z 06/23Z 07/00Z 07/01Z 07/02Z 07/03Z 07/04Z 07/05Z 07/06Z 07/07Z 07/08Z 07/09Z 07/10Z>>
Type OBS PRVL PRVL PRVL PRVL PRVL PRVL PRVL PRVL PRVL PRVL PRVL PRVL PRVL
VIS 10 >6 >6 >6 >6 >6 >6 >6 >6 >6 >6 >6 >6 >6
CIG 43 35 35 -- -- -- -- -- -- -- -- -- -- --
Cover OVC BKN BKN SCT SCT SCT SCT SCT SCT SCT SCT SCT SCT SCT
FltCat VFR VFR VFR VFR VFR VFR VFR VFR VFR VFR VFR VFR VFR VFR
WX -- -- -- -- -- -- -- -- -- -- -- -- -- --
WDir 330 340 340 350 350 350 350 350 350 350 350 350 350 350
WSpd 9 12 12 7 7 7 7 7 7 7 7 7 7 7
WGst -- -- -- -- -- -- -- -- -- -- -- -- -- --
Raw TAF
KTYR 061809Z 0618/0718 35012KT P6SM OVC025
  FM062100 34012KT P6SM BKN035
  FM070000 35007KT P6SM SCT250
  FM071200 01005KT P6SM SCT025 OVC040


Raw METAR
KTYR 062053Z 33009KT 10SM OVC043 19/08 A3015 RMK AO2 RAE45 SLP204 P0000 60000 T01940083 53004
KTYR 061953Z 33008KT 10SM -RA OVC034 19/09 A3013 RMK AO2 SLP199 P0000 T01940089
KTYR 061853Z 34008KT 10SM -RA BKN030 OVC040 19/10 A3013 RMK AO2 SLP198 P0000 T01890100

METAR Board
Radar Display
Forecast Discussion
For situational awareness. Not to be used for flight planning purposes.